Time;durP1;ratioP1;P1;durP2;ratioP2;P2;SDS_P1;SDS_P2;PMS_P1;PMS_P2;Temp;Humidity;BMP_temperature;BMP_pressure;BME280_temperature;BME280_humidity;BME280_pressure;Samples;Min_cycle;Max_cycle;Signal;HPM_P1;HPM_P2
2022/08/02 00:01:46;;;;;;;13.27;2.58;;;11.90;99.90;;;;;;5063328;28;20048;-71
2022/08/02 00:04:11;;;;;;;11.35;2.40;;;11.90;99.90;;;;;;5064745;28;20477;-71
2022/08/02 00:06:38;;;;;;;9.93;2.35;;;11.90;99.90;;;;;;5066519;28;20185;-71
2022/08/02 00:09:04;;;;;;;7.40;2.15;;;11.90;99.90;;;;;;5065533;28;20044;-71
2022/08/02 00:11:30;;;;;;;9.30;2.55;;;11.90;99.90;;;;;;5065590;28;20500;-72
2022/08/02 00:13:56;;;;;;;7.57;2.42;;;11.90;99.90;;;;;;5046465;28;20068;-72
2022/08/02 00:16:22;;;;;;;7.10;2.40;;;11.80;99.90;;;;;;5066684;28;20522;-72
2022/08/02 00:18:48;;;;;;;11.98;2.95;;;11.80;99.90;;;;;;5065998;28;20041;-71
2022/08/02 00:21:15;;;;;;;13.27;2.63;;;11.80;99.90;;;;;;5047588;28;20047;-71
2022/08/02 00:23:40;;;;;;;12.30;2.75;;;11.80;99.90;;;;;;5066309;28;20044;-72
2022/08/02 00:26:06;;;;;;;11.50;2.63;;;11.80;99.90;;;;;;5065910;28;20048;-72
2022/08/02 00:28:32;;;;;;;12.63;3.00;;;11.80;99.90;;;;;;5061424;28;20040;-72
2022/08/02 00:30:57;;;;;;;11.25;2.58;;;11.80;99.90;;;;;;5065650;28;20136;-72
2022/08/02 00:33:24;;;;;;;8.95;2.65;;;11.80;99.90;;;;;;5058641;28;20040;-71
2022/08/02 00:35:50;;;;;;;10.75;2.33;;;11.80;99.90;;;;;;5042069;28;20127;-72
2022/08/02 00:38:15;;;;;;;12.07;3.08;;;11.80;99.90;;;;;;5064816;28;20175;-72
2022/08/02 00:40:46;;;;;;;13.98;3.00;;;11.80;99.90;;;;;;5067194;28;20040;-72
2022/08/02 00:43:12;;;;;;;10.73;3.17;;;12.10;99.90;;;;;;5048482;28;20530;-72
2022/08/02 00:45:40;;;;;;;9.38;2.83;;;11.70;99.90;;;;;;5069275;28;20078;-72
2022/08/02 00:48:07;;;;;;;10.07;2.60;;;11.70;99.90;;;;;;5065790;28;20037;-72
2022/08/02 00:50:34;;;;;;;7.78;2.45;;;11.90;99.90;;;;;;5070055;28;20101;-72
2022/08/02 00:53:00;;;;;;;12.13;2.78;;;11.70;99.90;;;;;;5068718;28;20032;-72
2022/08/02 00:55:27;;;;;;;7.95;2.45;;;11.70;99.90;;;;;;5068638;28;20037;-72
2022/08/02 00:57:53;;;;;;;10.05;2.45;;;11.70;99.90;;;;;;5068516;28;20051;-72
2022/08/02 01:00:19;;;;;;;11.93;2.30;;;11.90;99.90;;;;;;5064034;28;20045;-72
2022/08/02 01:02:45;;;;;;;8.38;2.78;;;11.70;99.90;;;;;;5036521;28;20489;-72
2022/08/02 01:05:11;;;;;;;9.50;2.80;;;11.60;99.90;;;;;;5056347;28;20039;-71
2022/08/02 01:07:37;;;;;;;11.00;2.30;;;11.80;99.90;;;;;;5055018;28;20083;-71
2022/08/02 01:10:04;;;;;;;13.57;3.05;;;11.50;99.90;;;;;;5053934;28;20884;-71
2022/08/02 01:12:30;;;;;;;8.30;2.90;;;11.50;99.90;;;;;;5040659;28;20123;-71
2022/08/02 01:14:59;;;;;;;11.55;2.60;;;11.50;99.90;;;;;;5054197;28;20032;-72
2022/08/02 01:17:33;;;;;;;11.00;2.55;;;11.40;99.90;;;;;;5054470;28;20120;-72
2022/08/02 01:20:38;;;;;;;12.15;2.47;;;11.40;99.90;;;;;;5046115;28;20452;-72
2022/08/02 01:23:37;;;;;;;11.27;2.63;;;11.40;99.90;;;;;;5067591;28;20131;-73
2022/08/02 01:26:30;;;;;;;15.63;2.75;;;11.40;99.90;;;;;;5050836;28;20418;-71
2022/08/02 01:29:08;;;;;;;13.93;2.50;;;11.50;99.90;;;;;;5069273;28;20105;-72
2022/08/02 01:31:44;;;;;;;9.07;2.30;;;11.50;99.90;;;;;;5050149;28;20036;-72
2022/08/02 01:34:15;;;;;;;11.95;2.35;;;11.50;99.90;;;;;;5068707;28;20036;-72
2022/08/02 01:36:44;;;;;;;13.27;3.13;;;11.50;99.90;;;;;;5050690;28;20036;-72
2022/08/02 01:39:14;;;;;;;14.90;2.95;;;11.50;99.90;;;;;;5068295;28;20120;-71
2022/08/02 01:41:41;;;;;;;11.02;2.70;;;11.50;99.90;;;;;;5068532;28;20043;-71
2022/08/02 01:44:09;;;;;;;7.85;2.25;;;11.50;99.90;;;;;;5049054;28;20505;-71
2022/08/02 01:46:40;;;;;;;6.90;2.33;;;11.50;99.90;;;;;;5068176;28;20511;-71
2022/08/02 01:49:11;;;;;;;13.35;2.72;;;11.50;99.90;;;;;;5051590;28;20059;-71
2022/08/02 01:54:28;;;;;;;12.63;2.67;;;11.50;99.90;;;;;;5066188;28;20078;-72
2022/08/02 01:56:55;;;;;;;;;;;11.60;99.90;;;;;;5066341;28;20095;-71
2022/08/02 01:59:22;;;;;;;10.98;2.72;;;11.60;99.90;;;;;;5067944;28;19946;-71
2022/08/02 02:01:50;;;;;;;11.20;2.30;;;11.60;99.90;;;;;;5068795;28;20087;-72
2022/08/02 02:04:19;;;;;;;9.93;2.55;;;11.60;99.90;;;;;;5052568;28;20071;-72
2022/08/02 02:06:46;;;;;;;10.00;2.70;;;11.60;99.90;;;;;;5068681;28;20044;-71
2022/08/02 02:09:14;;;;;;;13.15;2.60;;;11.60;99.90;;;;;;5051144;28;20029;-71
2022/08/02 02:11:45;;;;;;;10.68;2.80;;;11.60;99.90;;;;;;5066472;28;20048;-72
2022/08/02 02:14:12;;;;;;;6.03;2.33;;;11.60;99.90;;;;;;5068124;28;20386;-71
2022/08/02 02:16:41;;;;;;;15.93;2.83;;;11.60;99.90;;;;;;5051639;28;20111;-71
2022/08/02 02:19:08;;;;;;;12.57;3.13;;;11.60;99.90;;;;;;5068090;28;20451;-71
2022/08/02 02:21:34;;;;;;;11.07;2.60;;;11.50;99.90;;;;;;5067120;28;20179;-71
2022/08/02 02:24:00;;;;;;;11.32;2.72;;;11.60;99.90;;;;;;5068849;28;20041;-71
2022/08/02 02:26:28;;;;;;;9.45;2.78;;;11.60;99.90;;;;;;5067636;28;20468;-72
2022/08/02 02:28:56;;;;;;;11.32;2.83;;;11.60;99.90;;;;;;5066032;28;20493;-70
2022/08/02 02:31:22;;;;;;;12.90;3.00;;;11.60;99.90;;;;;;5069136;28;20040;-70
2022/08/02 02:33:51;;;;;;;18.35;3.03;;;11.70;99.90;;;;;;5067268;28;20045;-70
2022/08/02 02:36:19;;;;;;;11.48;2.90;;;11.60;99.90;;;;;;5067531;28;20075;-71
2022/08/02 02:38:47;;;;;;;10.30;3.00;;;11.70;99.90;;;;;;5065591;28;20524;-71
2022/08/02 02:41:15;;;;;;;8.98;2.85;;;11.70;99.90;;;;;;5050016;28;20044;-72
2022/08/02 02:43:42;;;;;;;12.77;3.75;;;11.60;99.90;;;;;;5064426;28;20044;-70
2022/08/02 02:46:12;;;;;;;10.02;2.95;;;11.70;99.90;;;;;;5050494;28;20032;-71
2022/08/02 02:48:38;;;;;;;15.50;3.38;;;11.80;99.90;;;;;;5067554;28;20045;-67
2022/08/02 02:51:05;;;;;;;8.60;2.90;;;11.70;99.90;;;;;;5067124;28;20044;-68
2022/08/02 02:53:32;;;;;;;11.40;3.13;;;11.70;99.90;;;;;;5067318;28;20111;-67
2022/08/02 02:55:58;;;;;;;12.35;3.30;;;11.80;99.90;;;;;;5067854;28;20049;-67
2022/08/02 02:58:24;;;;;;;16.42;3.97;;;11.80;99.90;;;;;;5064743;28;20044;-68
2022/08/02 03:03:36;;;;;;;12.32;4.57;;;11.80;99.90;;;;;;5059393;28;20106;-67
2022/08/02 03:06:01;;;;;;;13.95;3.30;;;11.80;99.90;;;;;;5066420;28;20079;-67
2022/08/02 03:08:27;;;;;;;10.85;4.65;;;11.80;99.90;;;;;;5066143;28;20083;-68
2022/08/02 03:10:54;;;;;;;10.40;3.90;;;11.80;99.90;;;;;;5056253;28;20040;-68
2022/08/02 03:13:20;;;;;;;11.43;3.25;;;11.80;99.90;;;;;;5062682;28;20128;-69
2022/08/02 03:15:46;;;;;;;10.68;3.88;;;11.80;99.90;;;;;;5066298;28;20119;-67
2022/08/02 03:18:35;;;;;;;11.23;3.53;;;11.80;99.90;;;;;;5065742;28;20042;-68
2022/08/02 03:21:07;;;;;;;10.30;3.67;;;11.80;99.90;;;;;;5062035;28;20115;-68
2022/08/02 03:23:33;;;;;;;12.02;3.58;;;11.80;99.90;;;;;;5064136;28;20412;-68
2022/08/02 03:25:59;;;;;;;11.02;3.25;;;11.80;99.90;;;;;;5066608;28;20045;-68
2022/08/02 03:28:25;;;;;;;10.07;4.03;;;11.80;99.90;;;;;;5048284;28;20693;-68
2022/08/02 03:30:51;;;;;;;10.55;3.97;;;11.80;99.90;;;;;;5060237;28;20525;-68
2022/08/02 03:33:18;;;;;;;8.85;3.72;;;11.80;99.90;;;;;;5062975;28;20044;-68
2022/08/02 03:35:47;;;;;;;12.00;3.80;;;11.80;99.90;;;;;;5050020;28;20041;-68
2022/08/02 03:38:14;;;;;;;12.95;3.60;;;11.80;99.90;;;;;;5065415;28;20080;-68
2022/08/02 03:40:42;;;;;;;11.27;3.53;;;11.80;99.90;;;;;;5042624;28;20048;-68
2022/08/02 03:43:09;;;;;;;17.48;3.40;;;11.80;99.90;;;;;;5047201;28;20506;-68
2022/08/02 03:45:40;;;;;;;15.43;3.92;;;11.80;99.90;;;;;;5068044;28;20040;-68
2022/08/02 03:48:07;;;;;;;12.63;3.30;;;11.80;99.90;;;;;;5042689;28;20059;-69
2022/08/02 03:50:33;;;;;;;15.95;4.03;;;11.80;99.90;;;;;;5065300;28;20074;-68
2022/08/02 03:53:00;;;;;;;11.00;3.58;;;11.80;99.90;;;;;;5049564;28;20040;-68
2022/08/02 03:55:25;;;;;;;10.15;3.60;;;11.80;99.90;;;;;;5066453;28;20072;-68
2022/08/02 03:57:51;;;;;;;13.60;3.28;;;11.80;99.90;;;;;;5073415;28;20068;-68
2022/08/02 04:00:19;;;;;;;10.93;3.80;;;11.80;99.90;;;;;;5065279;28;20040;-69
2022/08/02 04:02:45;;;;;;;13.70;3.70;;;11.80;99.90;;;;;;5067816;28;20161;-68
2022/08/02 04:05:11;;;;;;;11.20;3.42;;;11.80;99.90;;;;;;5063837;28;20032;-69
2022/08/02 04:07:37;;;;;;;12.90;3.88;;;11.80;99.90;;;;;;5062102;28;20054;-68
2022/08/02 04:10:04;;;;;;;15.57;3.53;;;11.80;99.90;;;;;;5049039;28;20048;-68
2022/08/02 04:12:30;;;;;;;12.50;3.60;;;11.80;99.90;;;;;;5047447;28;20544;-68
2022/08/02 04:14:57;;;;;;;13.25;3.90;;;11.90;99.90;;;;;;5066011;28;20124;-68
2022/08/02 04:17:23;;;;;;;10.25;4.30;;;11.90;99.90;;;;;;5049673;28;20045;-68
2022/08/02 04:20:18;;;;;;;12.40;3.65;;;11.90;99.90;;;;;;5057614;28;20224;-70
2022/08/02 04:22:56;;;;;;;14.10;3.97;;;12.00;99.90;;;;;;5065686;28;20110;-68
2022/08/02 04:25:23;;;;;;;14.23;4.22;;;12.00;99.90;;;;;;5065474;28;20040;-69
2022/08/02 04:27:50;;;;;;;14.40;4.40;;;12.10;99.90;;;;;;5059766;28;20389;-67
2022/08/02 04:30:16;;;;;;;15.93;4.47;;;12.10;99.90;;;;;;5062170;28;20123;-68
2022/08/02 04:32:44;;;;;;;10.30;3.70;;;12.20;99.90;;;;;;5065478;28;20374;-67
2022/08/02 04:35:10;;;;;;;14.55;4.28;;;12.20;99.90;;;;;;5063155;28;20083;-67
2022/08/02 04:37:37;;;;;;;13.40;3.67;;;12.20;99.90;;;;;;5056618;28;20450;-69
2022/08/02 04:40:10;;;;;;;10.90;4.03;;;12.30;99.90;;;;;;5064685;28;20048;-68
2022/08/02 04:42:36;;;;;;;12.60;3.38;;;12.30;99.90;;;;;;5046298;28;20461;-68
2022/08/02 04:45:03;;;;;;;18.02;4.45;;;12.60;99.90;;;;;;5041871;28;20046;-68
2022/08/02 04:47:29;;;;;;;13.35;4.22;;;13.10;99.90;;;;;;5061162;28;20037;-69
2022/08/02 04:49:55;;;;;;;12.20;4.15;;;14.30;99.90;;;;;;5065085;28;20077;-68
2022/08/02 04:52:20;;;;;;;14.02;3.20;;;15.00;99.90;;;;;;5066893;28;20232;-68
2022/08/02 04:54:46;;;;;;;10.38;3.60;;;15.70;99.90;;;;;;5037417;28;20041;-67
2022/08/02 04:59:56;;;;;;;12.85;3.53;;;15.80;99.90;;;;;;5064972;28;20067;-68
2022/08/02 05:02:21;;;;;;;14.13;3.70;;;17.00;99.90;;;;;;5055121;28;20037;-67
2022/08/02 05:04:47;;;;;;;12.65;3.33;;;17.60;99.90;;;;;;5065864;28;20331;-68
2022/08/02 05:07:13;;;;;;;10.40;3.03;;;17.50;99.90;;;;;;5064434;28;20121;-68
2022/08/02 05:09:38;;;;;;;12.43;3.40;;;18.20;99.90;;;;;;5055715;28;20486;-68
2022/08/02 05:12:05;;;;;;;15.82;4.10;;;18.50;99.90;;;;;;5064750;28;20045;-67
2022/08/02 05:14:31;;;;;;;10.73;3.50;;;18.90;99.90;;;;;;5065596;28;20029;-67
2022/08/02 05:16:56;;;;;;;12.73;3.50;;;18.90;99.90;;;;;;5064776;28;20523;-67
2022/08/02 05:19:22;;;;;;;10.88;3.05;;;18.80;99.90;;;;;;5058403;28;21106;-67
2022/08/02 05:21:48;;;;;;;13.52;3.88;;;18.60;99.90;;;;;;5063206;28;20098;-67
2022/08/02 05:24:14;;;;;;;13.38;3.22;;;18.80;99.90;;;;;;5065685;28;20040;-68
2022/08/02 05:26:40;;;;;;;10.98;2.95;;;19.20;99.90;;;;;;5064137;28;20051;-68
2022/08/02 05:29:05;;;;;;;13.25;2.83;;;20.00;99.90;;;;;;5061130;28;20702;-67
2022/08/02 05:31:31;;;;;;;9.32;2.90;;;20.70;99.90;;;;;;5062596;28;20094;-69
2022/08/02 05:33:57;;;;;;;10.02;2.97;;;20.80;99.90;;;;;;5069006;28;20097;-68
2022/08/02 05:36:22;;;;;;;9.13;2.70;;;19.90;99.90;;;;;;5069755;28;20039;-68
2022/08/02 05:38:52;;;;;;;10.43;2.72;;;19.10;99.90;;;;;;5062940;28;20464;-68
2022/08/02 05:41:18;;;;;;;11.13;3.50;;;18.20;99.90;;;;;;5069615;28;20040;-68
2022/08/02 05:43:45;;;;;;;11.65;2.78;;;17.70;99.90;;;;;;5066459;28;20043;-69
2022/08/02 05:46:11;;;;;;;10.75;3.38;;;17.20;99.90;;;;;;5051244;28;20484;-68
2022/08/02 05:48:37;;;;;;;8.00;2.88;;;17.00;99.90;;;;;;5066642;28;20089;-68
2022/08/02 05:51:05;;;;;;;11.13;2.85;;;16.60;99.90;;;;;;5052129;28;20413;-68
2022/08/02 05:53:40;;;;;;;13.82;3.20;;;16.40;99.90;;;;;;5068367;28;20516;-69
2022/08/02 05:56:27;;;;;;;9.95;3.10;;;16.20;99.90;;;;;;5060414;28;20435;-68
2022/08/02 05:59:04;;;;;;;8.00;2.90;;;16.10;99.90;;;;;;5069949;28;20044;-68
2022/08/02 06:01:36;;;;;;;9.27;2.80;;;15.90;99.90;;;;;;5050797;28;20073;-68
2022/08/02 06:04:06;;;;;;;12.15;2.70;;;16.00;99.90;;;;;;5061680;28;20476;-68
2022/08/02 06:06:32;;;;;;;10.55;3.10;;;16.20;99.90;;;;;;5083700;28;20071;-68
2022/08/02 06:09:06;;;;;;;8.75;2.53;;;16.10;99.90;;;;;;5067564;28;20048;-68
2022/08/02 06:11:38;;;;;;;11.82;3.38;;;16.10;99.90;;;;;;5046986;28;20048;-67
2022/08/02 06:14:06;;;;;;;11.38;3.28;;;16.10;99.90;;;;;;5060301;28;20052;-67
2022/08/02 06:16:32;;;;;;;11.35;3.03;;;16.10;99.90;;;;;;5063773;28;20106;-69
2022/08/02 06:18:59;;;;;;;9.65;2.70;;;16.00;99.90;;;;;;5050904;28;20094;-67
2022/08/02 06:21:25;;;;;;;9.55;2.80;;;16.30;99.90;;;;;;5064018;28;20044;-72
2022/08/02 06:23:52;;;;;;;11.80;3.00;;;16.10;99.90;;;;;;5066686;28;20052;-73
2022/08/02 06:26:18;;;;;;;8.55;2.75;;;16.20;99.90;;;;;;5043334;28;20379;-70
2022/08/02 06:28:46;;;;;;;10.30;3.20;;;16.30;99.90;;;;;;5066964;28;20046;-69
2022/08/02 06:31:14;;;;;;;11.82;2.47;;;16.40;99.90;;;;;;5065616;28;20041;-72
2022/08/02 06:33:40;;;;;;;12.63;2.67;;;16.70;99.90;;;;;;5048102;28;20037;-68
2022/08/02 06:36:17;;;;;;;10.00;2.92;;;16.80;99.90;;;;;;5067610;28;20051;-68
2022/08/02 06:38:55;;;;;;;9.43;2.70;;;17.10;99.90;;;;;;5066460;28;20090;-68
2022/08/02 06:41:24;;;;;;;10.55;3.25;;;17.10;99.90;;;;;;5065151;28;20070;-67
2022/08/02 06:43:54;;;;;;;10.65;2.97;;;17.30;99.90;;;;;;5068831;28;20102;-67
2022/08/02 06:46:20;;;;;;;8.32;2.83;;;17.10;99.90;;;;;;5064097;28;20137;-69
2022/08/02 06:48:46;;;;;;;11.93;3.28;;;17.20;99.90;;;;;;5061767;28;20058;-68
2022/08/02 06:51:12;;;;;;;12.02;2.72;;;17.30;99.90;;;;;;5067802;28;20052;-67
2022/08/02 06:53:39;;;;;;;8.93;2.60;;;17.30;99.90;;;;;;5066256;28;20044;-68
2022/08/02 06:56:04;;;;;;;11.85;3.20;;;17.30;99.90;;;;;;5043886;28;20094;-66
2022/08/02 06:58:30;;;;;;;13.13;2.80;;;17.40;99.90;;;;;;5067020;28;20382;-69
2022/08/02 07:00:56;;;;;;;11.77;3.25;;;17.40;99.90;;;;;;5063251;28;20044;-67
2022/08/02 07:03:24;;;;;;;10.32;2.63;;;17.40;99.90;;;;;;5056806;28;20116;-68
2022/08/02 07:05:50;;;;;;;12.00;2.67;;;17.50;99.90;;;;;;5049747;28;20458;-68
2022/08/02 07:08:16;;;;;;;7.65;2.53;;;17.70;99.90;;;;;;5067382;28;20037;-68
2022/08/02 07:10:42;;;;;;;11.55;2.45;;;17.70;99.90;;;;;;5058926;28;20129;-67
2022/08/02 07:13:08;;;;;;;7.93;2.13;;;17.90;99.90;;;;;;5052367;28;20416;-67
2022/08/02 07:15:35;;;;;;;11.50;2.40;;;18.00;99.90;;;;;;5058975;28;20060;-67
2022/08/02 07:18:01;;;;;;;7.45;2.47;;;18.00;99.90;;;;;;5067051;28;20394;-68
2022/08/02 07:20:26;;;;;;;10.95;1.80;;;18.10;99.90;;;;;;5067123;28;20040;-66
2022/08/02 07:22:52;;;;;;;7.13;1.70;;;18.10;99.90;;;;;;5060503;28;20049;-67
2022/08/02 07:25:18;;;;;;;11.35;2.05;;;18.20;99.90;;;;;;5061412;28;20458;-67
2022/08/02 07:27:44;;;;;;;6.30;1.65;;;18.30;99.90;;;;;;5065145;28;20492;-67
2022/08/02 07:30:10;;;;;;;8.45;2.25;;;18.50;99.90;;;;;;5059515;28;20098;-67
2022/08/02 07:32:36;;;;;;;6.00;1.55;;;18.70;99.90;;;;;;5063679;28;20054;-69
2022/08/02 07:35:03;;;;;;;7.93;2.22;;;18.90;99.90;;;;;;5066813;28;20052;-68
2022/08/02 07:37:30;;;;;;;6.72;1.35;;;19.10;99.90;;;;;;5060646;28;20044;-67
2022/08/02 07:39:56;;;;;;;4.97;1.52;;;19.50;99.90;;;;;;5049781;28;20049;-67
2022/08/02 07:42:22;;;;;;;6.47;1.65;;;19.70;99.90;;;;;;5064475;28;20545;-67
2022/08/02 07:44:48;;;;;;;9.32;1.73;;;20.10;99.90;;;;;;5063517;28;20064;-68
2022/08/02 07:47:14;;;;;;;13.43;1.92;;;20.50;99.90;;;;;;5061843;28;20055;-67
2022/08/02 07:49:40;;;;;;;5.43;1.20;;;21.50;99.90;;;;;;5066154;28;20404;-69
2022/08/02 07:52:05;;;;;;;7.15;1.20;;;22.10;99.90;;;;;;5060901;28;20574;-69
2022/08/02 07:54:31;;;;;;;5.30;1.30;;;22.40;99.90;;;;;;5065294;28;20049;-68
2022/08/02 07:56:57;;;;;;;5.90;1.27;;;22.40;99.90;;;;;;5048386;28;20060;-67
2022/08/02 07:59:22;;;;;;;4.45;1.05;;;22.50;99.90;;;;;;5059276;28;20045;-68
2022/08/02 08:01:49;;;;;;;4.50;1.10;;;22.50;99.90;;;;;;5070871;28;20440;-69
2022/08/02 08:04:15;;;;;;;6.00;0.98;;;22.40;99.90;;;;;;5064280;28;20386;-69
2022/08/02 08:06:41;;;;;;;4.47;1.02;;;22.40;99.90;;;;;;5060306;28;20181;-68
2022/08/02 08:09:06;;;;;;;3.20;0.90;;;22.30;99.90;;;;;;5064101;28;20062;-70
2022/08/02 08:11:32;;;;;;;2.60;0.90;;;22.40;99.90;;;;;;5064167;28;20451;-69
2022/08/02 08:13:59;;;;;;;5.45;1.02;;;22.40;99.90;;;;;;5061548;28;20036;-67
2022/08/02 08:16:27;;;;;;;3.00;0.88;;;22.50;99.90;;;;;;5062511;28;20505;-68
2022/08/02 08:18:54;;;;;;;6.65;1.00;;;22.70;99.90;;;;;;5064637;28;20524;-67
2022/08/02 08:21:20;;;;;;;5.68;0.88;;;22.80;99.90;;;;;;5060718;28;20381;-72
2022/08/02 08:23:45;;;;;;;3.90;1.00;;;22.90;99.90;;;;;;5065565;28;20040;-73
2022/08/02 08:26:11;;;;;;;5.35;1.10;;;23.10;99.90;;;;;;5063211;28;20049;-72
2022/08/02 08:28:37;;;;;;;2.88;0.90;;;23.20;99.90;;;;;;5056789;28;20048;-72
2022/08/02 08:31:02;;;;;;;4.80;0.88;;;23.30;98.40;;;;;;5062736;28;20106;-69
2022/08/02 08:33:28;;;;;;;4.72;1.00;;;23.40;96.20;;;;;;5066105;28;20512;-72
2022/08/02 08:35:54;;;;;;;4.00;0.95;;;23.40;98.00;;;;;;5060936;28;20044;-73
2022/08/02 08:38:20;;;;;;;6.07;1.42;;;23.50;98.50;;;;;;5062906;28;20037;-70
2022/08/02 08:40:48;;;;;;;4.32;0.85;;;23.60;98.80;;;;;;5057539;28;20048;-72
2022/08/02 08:43:14;;;;;;;4.78;1.40;;;23.80;98.00;;;;;;5059902;28;20068;-71
2022/08/02 08:45:44;;;;;;;1.90;0.82;;;24.20;99.90;;;;;;5063447;28;20503;-74
2022/08/02 08:48:14;;;;;;;2.95;1.00;;;24.40;97.80;;;;;;5059746;28;20136;-73
2022/08/02 08:51:05;;;;;;;2.63;1.08;;;24.50;99.10;;;;;;5061006;28;20063;-71
2022/08/02 08:53:38;;;;;;;10.88;1.25;;;24.70;99.30;;;;;;5042403;28;20079;-71
2022/08/02 08:56:05;;;;;;;3.95;1.10;;;24.90;99.10;;;;;;5056660;28;20107;-72
2022/08/02 08:58:31;;;;;;;3.75;1.10;;;25.00;97.20;;;;;;5045744;28;20082;-72
2022/08/02 09:00:57;;;;;;;4.57;1.00;;;25.00;97.60;;;;;;5060669;28;20064;-72
2022/08/02 09:03:23;;;;;;;5.90;1.20;;;25.00;95.60;;;;;;5035695;28;20048;-72
2022/08/02 09:05:49;;;;;;;4.80;1.02;;;25.00;96.40;;;;;;5061969;28;20048;-69
2022/08/02 09:08:15;;;;;;;3.63;1.13;;;25.00;97.10;;;;;;5064837;28;20534;-69
2022/08/02 09:10:46;;;;;;;4.50;1.00;;;25.10;94.10;;;;;;5064181;28;20087;-69
2022/08/02 09:13:11;;;;;;;4.28;1.20;;;25.20;97.60;;;;;;5059847;28;20052;-68
2022/08/02 09:15:39;;;;;;;4.60;1.15;;;25.40;95.10;;;;;;5064204;28;20394;-69
2022/08/02 09:18:06;;;;;;;5.80;1.00;;;25.40;95.10;;;;;;5052390;28;20416;-67
2022/08/02 09:20:32;;;;;;;3.55;1.20;;;25.50;94.60;;;;;;5037937;28;20047;-69
2022/08/02 09:23:10;;;;;;;3.35;0.98;;;25.70;95.40;;;;;;5054778;28;20067;-68
2022/08/02 09:25:36;;;;;;;2.75;1.00;;;25.90;95.80;;;;;;5059966;28;20037;-69
2022/08/02 09:28:05;;;;;;;3.90;1.08;;;26.00;95.80;;;;;;5068215;28;20040;-69
2022/08/02 09:30:31;;;;;;;3.47;1.10;;;26.00;94.20;;;;;;5051356;28;20447;-69
2022/08/02 09:32:56;;;;;;;3.38;1.10;;;26.20;95.30;;;;;;5061215;28;20037;-70
2022/08/02 09:35:35;;;;;;;3.50;1.02;;;26.30;95.30;;;;;;5065609;28;20040;-70
2022/08/02 09:38:12;;;;;;;3.60;1.35;;;26.50;95.40;;;;;;5076420;28;20036;-70
2022/08/02 09:40:40;;;;;;;4.07;1.10;;;26.60;91.90;;;;;;5054449;28;20043;-69
2022/08/02 09:43:07;;;;;;;4.53;0.93;;;26.60;94.00;;;;;;5052658;28;20119;-71
2022/08/02 09:45:34;;;;;;;6.28;1.40;;;26.50;93.60;;;;;;5038324;28;20520;-70
2022/08/02 09:48:10;;;;;;;3.75;1.00;;;26.40;93.20;;;;;;5055518;28;20122;-70
2022/08/02 09:50:37;;;;;;;5.13;1.17;;;26.30;93.50;;;;;;5055013;28;20056;-70
2022/08/02 09:53:03;;;;;;;4.28;1.20;;;26.50;95.10;;;;;;5054255;28;20082;-70
2022/08/02 09:55:29;;;;;;;4.75;1.13;;;26.80;94.10;;;;;;5057220;28;20226;-70
2022/08/02 09:57:55;;;;;;;5.60;1.40;;;27.10;94.00;;;;;;5054806;28;20040;-71
2022/08/02 10:00:21;;;;;;;7.43;1.63;;;27.40;95.80;;;;;;5052908;28;20094;-68
2022/08/02 10:03:05;;;;;;;5.20;1.65;;;27.40;93.00;;;;;;5053573;28;20044;-69
2022/08/02 10:05:48;;;;;;;6.05;1.95;;;27.50;93.30;;;;;;5057316;28;20043;-71
2022/08/02 10:08:14;;;;;;;6.60;2.08;;;27.30;92.80;;;;;;5064847;28;20505;-69
2022/08/02 10:10:41;;;;;;;5.38;1.67;;;27.20;94.10;;;;;;5040399;28;20187;-70
2022/08/02 10:13:07;;;;;;;12.32;1.60;;;27.00;93.60;;;;;;5063846;28;20076;-69
2022/08/02 10:15:34;;;;;;;7.55;1.92;;;26.70;94.40;;;;;;5062011;28;20091;-69
2022/08/02 10:17:59;;;;;;;6.20;1.95;;;26.50;95.10;;;;;;5051654;28;20132;-70
2022/08/02 10:20:25;;;;;;;6.20;1.83;;;26.60;95.60;;;;;;5048922;28;20040;-70
2022/08/02 10:22:53;;;;;;;7.63;1.80;;;26.80;96.00;;;;;;5055780;28;20044;-71
2022/08/02 10:25:21;;;;;;;7.75;2.08;;;27.00;96.40;;;;;;5066826;28;20456;-70
2022/08/02 10:27:51;;;;;;;4.97;1.73;;;27.00;96.00;;;;;;5068156;28;20080;-70
2022/08/02 10:30:17;;;;;;;11.63;2.58;;;27.00;95.60;;;;;;5061326;28;20098;-69
2022/08/02 10:32:45;;;;;;;6.78;2.53;;;27.10;96.60;;;;;;5062673;28;20040;-69
2022/08/02 10:35:14;;;;;;;10.15;2.60;;;26.90;96.20;;;;;;5066291;28;20043;-68
2022/08/02 10:37:43;;;;;;;7.20;2.35;;;26.70;97.40;;;;;;5050096;28;20032;-68
2022/08/02 10:40:21;;;;;;;5.85;2.58;;;26.70;97.80;;;;;;5048670;28;20154;-69
2022/08/02 10:42:52;;;;;;;8.60;2.95;;;26.80;97.10;;;;;;5053918;28;20414;-69
2022/08/02 10:45:19;;;;;;;;;;;27.00;97.10;;;;;;5061092;28;20045;-69
2022/08/02 10:47:58;;;;;;;8.30;2.28;;;27.10;97.80;;;;;;5048847;28;20448;-69
2022/08/02 10:50:45;;;;;;;7.03;2.58;;;27.20;98.10;;;;;;5066571;28;20052;-70
2022/08/02 10:53:26;;;;;;;7.50;2.45;;;27.50;97.20;;;;;;5065474;28;20037;-69
2022/08/02 10:55:54;;;;;;;8.75;2.30;;;27.60;96.20;;;;;;5066071;28;20055;-69
2022/08/02 10:58:22;;;;;;;8.50;2.70;;;27.50;97.40;;;;;;5065844;28;20044;-69
2022/08/02 11:00:49;;;;;;;7.07;2.25;;;27.40;97.00;;;;;;5047425;28;20423;-68
2022/08/02 11:03:27;;;;;;;6.18;2.40;;;27.30;96.80;;;;;;5081603;28;20498;-69
2022/08/02 11:06:04;;;;;;;8.00;2.15;;;27.10;95.50;;;;;;5066765;28;20052;-69
2022/08/02 11:08:30;;;;;;;10.75;2.42;;;26.80;96.80;;;;;;5066346;28;20378;-69
2022/08/02 11:11:17;;;;;;;7.70;2.22;;;26.60;96.90;;;;;;5048940;28;20060;-69
2022/08/02 11:13:58;;;;;;;9.65;2.80;;;26.50;96.50;;;;;;5065410;28;20536;-69
2022/08/02 11:16:56;;;;;;;6.18;1.95;;;26.40;96.90;;;;;;5068056;28;20380;-71
2022/08/02 11:19:23;;;;;;;4.80;1.98;;;26.20;97.50;;;;;;5066536;28;20048;-70
2022/08/02 11:22:12;;;;;;;7.63;2.40;;;26.40;98.60;;;;;;5067640;28;20047;-69
2022/08/02 11:24:39;;;;;;;5.60;2.28;;;26.70;98.40;;;;;;5065851;28;20045;-69
2022/08/02 11:27:07;;;;;;;5.57;1.95;;;26.90;97.90;;;;;;5067395;28;20434;-70
2022/08/02 11:29:34;;;;;;;5.25;2.00;;;26.90;98.10;;;;;;5065470;28;20052;-70
2022/08/02 11:32:00;;;;;;;6.90;2.20;;;26.90;98.60;;;;;;5048839;28;20052;-69
2022/08/02 11:34:27;;;;;;;7.35;2.67;;;26.90;98.00;;;;;;5066237;28;20040;-70
2022/08/02 11:36:53;;;;;;;6.40;2.53;;;26.90;98.50;;;;;;5068674;28;20471;-69
2022/08/02 11:39:21;;;;;;;7.13;2.88;;;26.80;98.50;;;;;;5068576;28;20178;-70
2022/08/02 11:41:52;;;;;;;7.78;2.95;;;26.80;99.00;;;;;;5066283;28;20045;-71
2022/08/02 11:44:18;;;;;;;5.32;2.20;;;26.90;99.50;;;;;;5067113;28;20040;-71
2022/08/02 11:46:52;;;;;;;6.28;2.70;;;27.10;99.80;;;;;;5066680;28;20056;-70
2022/08/02 11:49:19;;;;;;;6.00;2.65;;;27.20;99.90;;;;;;5065580;28;20044;-71
2022/08/02 11:51:59;;;;;;;11.05;3.72;;;27.30;99.80;;;;;;5080577;28;20095;-70
2022/08/02 11:54:29;;;;;;;5.60;3.20;;;27.40;99.60;;;;;;5049856;28;20048;-69
2022/08/02 11:57:11;;;;;;;8.02;4.22;;;27.50;99.30;;;;;;5047977;28;20052;-69
2022/08/02 11:59:40;;;;;;;7.45;3.47;;;27.40;99.70;;;;;;5065895;28;20064;-69
2022/08/02 12:02:07;;;;;;;7.90;3.53;;;27.30;99.70;;;;;;5049230;28;20473;-71
2022/08/02 12:04:33;;;;;;;10.20;3.70;;;27.10;99.90;;;;;;5065522;28;20040;-70
2022/08/02 12:07:00;;;;;;;7.55;3.08;;;27.10;99.70;;;;;;5045564;28;20052;-70
2022/08/02 12:09:28;;;;;;;9.77;3.13;;;27.00;99.90;;;;;;5063159;28;20040;-69
2022/08/02 12:11:55;;;;;;;6.47;2.95;;;26.90;99.90;;;;;;5046046;28;20075;-69
2022/08/02 12:14:22;;;;;;;6.60;2.33;;;26.70;99.90;;;;;;5063060;28;20123;-70
2022/08/02 12:19:34;;;;;;;4.82;2.30;;;26.50;99.90;;;;;;5060662;28;20133;-69
2022/08/02 12:22:18;;;;;;;9.05;2.50;;;26.30;99.90;;;;;;5058343;28;20044;-69
2022/08/02 12:24:49;;;;;;;7.10;2.85;;;26.30;99.90;;;;;;5043394;28;20039;-70
2022/08/02 12:27:33;;;;;;;9.18;2.95;;;26.40;99.90;;;;;;5046500;28;20139;-68
2022/08/02 12:30:05;;;;;;;6.25;2.92;;;26.20;99.90;;;;;;5061482;28;20469;-69
2022/08/02 12:32:31;;;;;;;9.20;3.40;;;26.10;99.90;;;;;;5059043;28;20509;-70
2022/08/02 12:35:06;;;;;;;8.10;3.72;;;25.90;99.90;;;;;;5063275;28;20083;-70
2022/08/02 12:37:32;;;;;;;7.38;2.97;;;25.70;99.90;;;;;;5065678;28;20033;-69
2022/08/02 12:40:15;;;;;;;7.75;3.45;;;25.60;99.90;;;;;;5065397;28;20049;-69
2022/08/02 12:42:46;;;;;;;7.65;3.40;;;25.50;99.90;;;;;;5069828;28;20036;-69
2022/08/02 12:45:11;;;;;;;8.02;3.10;;;25.40;99.90;;;;;;5069420;28;20045;-69
2022/08/02 12:47:52;;;;;;;10.30;3.83;;;25.30;99.90;;;;;;5069540;28;20110;-68
2022/08/02 12:50:20;;;;;;;7.72;3.90;;;25.30;99.90;;;;;;5065583;28;20123;-68
2022/08/02 12:52:50;;;;;;;9.73;3.88;;;25.30;99.90;;;;;;5070123;28;20125;-69
2022/08/02 12:55:17;;;;;;;7.70;3.80;;;25.30;99.90;;;;;;5070724;28;20036;-69
2022/08/02 12:57:57;;;;;;;8.38;3.65;;;25.30;99.90;;;;;;5069048;28;20076;-70
2022/08/02 13:00:34;;;;;;;10.27;3.50;;;25.30;99.90;;;;;;5068803;28;20429;-70
2022/08/02 13:03:00;;;;;;;6.70;3.40;;;25.20;99.90;;;;;;5067857;28;20048;-70